createdAt,value
2022-11-25T00:01:51.823Z,100864.44
2022-11-25T00:04:22.795Z,100861.00
2022-11-25T00:06:52.491Z,100863.69
2022-11-25T00:09:22.339Z,100860.22
2022-11-25T00:11:52.060Z,100850.63
2022-11-25T00:14:21.816Z,100841.97
2022-11-25T00:16:54.202Z,100853.31
2022-11-25T00:19:23.959Z,100847.19
2022-11-25T00:21:53.713Z,100851.66
2022-11-25T00:24:23.428Z,100842.97
2022-11-25T00:26:53.119Z,100843.81
2022-11-25T00:29:22.859Z,100840.28
2022-11-25T00:31:55.270Z,100850.78
2022-11-25T00:34:25.137Z,100843.72
2022-11-25T00:36:55.315Z,100840.13
2022-11-25T00:39:25.855Z,100835.94
2022-11-25T00:42:07.979Z,100841.19
2022-11-25T00:44:41.447Z,100835.06
2022-11-25T00:47:16.016Z,100850.78
2022-11-25T00:49:47.506Z,100837.59
2022-11-25T00:52:19.215Z,100849.81
2022-11-25T00:54:50.526Z,100837.53
2022-11-25T00:57:21.350Z,100837.59
2022-11-25T00:59:51.548Z,100837.69
2022-11-25T01:02:24.412Z,100835.88
2022-11-25T01:04:54.176Z,100830.59
2022-11-25T01:07:23.918Z,100842.91
2022-11-25T01:09:53.690Z,100844.69
2022-11-25T01:12:23.412Z,100833.31
2022-11-25T01:14:53.123Z,100841.25
2022-11-25T01:17:25.436Z,100842.19
2022-11-25T01:19:55.137Z,100836.94
2022-11-25T01:22:24.879Z,100828.28
2022-11-25T01:24:54.576Z,100829.16
2022-11-25T01:27:24.276Z,100830.06
2022-11-25T01:29:53.952Z,100836.19
2022-11-25T01:32:26.296Z,100832.75
2022-11-25T01:34:56.012Z,100830.19
2022-11-25T01:37:25.736Z,100835.41
2022-11-25T01:39:55.486Z,100839.00
2022-11-25T01:42:25.204Z,100838.19
2022-11-25T01:45:35.177Z,100837.34
2022-11-25T01:48:15.607Z,100840.81
2022-11-25T01:50:46.884Z,100843.34
2022-11-25T01:53:19.218Z,100838.13
2022-11-25T01:55:54.368Z,100848.59
2022-11-25T01:58:28.528Z,100842.47
2022-11-25T02:00:58.461Z,100837.22
2022-11-25T02:03:34.914Z,100838.13
2022-11-25T02:06:10.555Z,100831.97
2022-11-25T02:08:41.399Z,100839.00
2022-11-25T02:11:11.176Z,100843.34
2022-11-25T02:13:41.409Z,100839.00
2022-11-25T02:16:11.335Z,100833.75
2022-11-25T02:18:44.047Z,100833.75
2022-11-25T02:21:14.022Z,100830.31
2022-11-25T02:23:51.071Z,100839.13
2022-11-25T02:26:23.725Z,100829.56
2022-11-25T02:28:55.432Z,100836.56
2022-11-25T02:31:26.359Z,100824.44
2022-11-25T02:33:56.150Z,100831.44
2022-11-25T02:36:26.778Z,100834.97
2022-11-25T02:38:59.145Z,100832.34
2022-11-25T02:41:34.667Z,100823.66
2022-11-25T02:44:05.159Z,100817.53
2022-11-25T02:46:35.994Z,100817.66
2022-11-25T02:49:09.237Z,100814.94
2022-11-25T02:51:40.679Z,100815.06
2022-11-25T02:54:10.951Z,100821.22
2022-11-25T02:56:43.423Z,100809.00
2022-11-25T02:59:14.032Z,100807.19
2022-11-25T03:01:44.141Z,100801.16
2022-11-25T03:04:14.074Z,100795.91
2022-11-25T03:06:43.760Z,100800.25
2022-11-25T03:09:13.589Z,100801.16
2022-11-25T03:11:58.299Z,100800.09
2022-11-25T03:14:28.127Z,100824.47
2022-11-25T03:16:57.898Z,100807.03
2022-11-25T03:19:27.832Z,100810.44
2022-11-25T03:21:57.592Z,100819.19
2022-11-25T03:24:27.387Z,100821.81
2022-11-25T03:26:59.701Z,100816.59
2022-11-25T03:29:29.413Z,100822.69
2022-11-25T03:31:59.189Z,100817.47
2022-11-25T03:34:29.159Z,100820.06
2022-11-25T03:36:58.883Z,100819.31
2022-11-25T03:39:28.713Z,100814.13
2022-11-25T03:42:01.052Z,100821.22
2022-11-25T03:44:30.754Z,100814.25
2022-11-25T03:47:00.452Z,100817.00
2022-11-25T03:49:30.213Z,100820.59
2022-11-25T03:52:00.004Z,100820.66
2022-11-25T03:54:30.037Z,100822.44
2022-11-25T03:57:02.381Z,100819.88
2022-11-25T03:59:32.104Z,100819.03
2022-11-25T04:02:01.885Z,100819.09
2022-11-25T04:04:31.703Z,100822.63
2022-11-25T04:07:01.472Z,100820.97
2022-11-25T04:09:31.257Z,100826.22
2022-11-25T04:12:15.996Z,100836.69
2022-11-25T04:14:45.733Z,100843.72
2022-11-25T04:17:15.464Z,100840.25
2022-11-25T04:19:45.148Z,100849.03
2022-11-25T04:22:14.929Z,100857.84
2022-11-25T04:24:44.684Z,100852.56
2022-11-25T04:27:17.916Z,100859.56
2022-11-25T04:29:49.924Z,100859.56
2022-11-25T04:32:19.651Z,100861.31
2022-11-25T04:34:49.380Z,100847.31
2022-11-25T04:37:19.076Z,100855.22
2022-11-25T04:39:48.786Z,100859.66
2022-11-25T04:42:33.620Z,100854.44
2022-11-25T04:47:54.230Z,100871.03
2022-11-25T04:50:27.028Z,100861.38
2022-11-25T04:52:56.717Z,100871.88
2022-11-25T04:55:26.535Z,100884.16
2022-11-25T04:57:59.166Z,100880.63
2022-11-25T05:00:26.356Z,100885.03
2022-11-25T05:02:56.050Z,100885.09
2022-11-25T05:05:26.127Z,100876.38
2022-11-25T05:07:55.905Z,100878.19
2022-11-25T05:10:25.767Z,100867.72
2022-11-25T05:12:58.100Z,100869.47
2022-11-25T05:15:27.804Z,100880.09
2022-11-25T05:17:57.570Z,100876.66
2022-11-25T05:20:27.357Z,100874.03
2022-11-25T05:22:57.054Z,100874.16
2022-11-25T05:25:27.108Z,100883.00
2022-11-25T05:28:01.769Z,100876.81
2022-11-25T05:30:31.708Z,100875.94
2022-11-25T05:33:01.437Z,100877.75
2022-11-25T05:35:31.196Z,100869.03
2022-11-25T05:38:04.430Z,100879.59
2022-11-25T05:40:34.651Z,100886.53
2022-11-25T05:43:06.981Z,100887.47
2022-11-25T05:45:36.709Z,100889.22
2022-11-25T05:48:06.674Z,100895.38
2022-11-25T05:50:36.398Z,100894.47
2022-11-25T05:53:06.249Z,100904.97
2022-11-25T05:55:36.003Z,100912.78
2022-11-25T05:58:08.531Z,100928.53
2022-11-25T06:00:38.583Z,100926.75
2022-11-25T06:03:08.687Z,100934.63
2022-11-25T06:05:38.739Z,100925.78
2022-11-25T06:08:08.531Z,100933.66
2022-11-25T06:10:41.534Z,100928.41
2022-11-25T06:13:13.845Z,100934.53
2022-11-25T06:15:45.014Z,100938.97
2022-11-25T06:18:15.963Z,100927.59
2022-11-25T06:20:45.809Z,100935.47
2022-11-25T06:23:15.549Z,100942.50
2022-11-25T06:25:45.724Z,100939.00
2022-11-25T06:28:18.052Z,100942.50
2022-11-25T06:30:48.101Z,100947.72
2022-11-25T06:33:17.840Z,100961.75
2022-11-25T06:35:47.543Z,100967.06
2022-11-25T06:38:17.270Z,100970.50
2022-11-25T06:40:46.972Z,100974.94
2022-11-25T06:43:19.331Z,100973.19
2022-11-25T06:45:49.044Z,100976.78
2022-11-25T06:48:18.767Z,100980.25
2022-11-25T06:50:48.488Z,100989.06
2022-11-25T06:53:23.842Z,100991.69
2022-11-25T06:56:04.901Z,100994.47
2022-11-25T06:58:37.687Z,100989.22
2022-11-25T07:01:09.366Z,100994.50
2022-11-25T07:03:39.210Z,100988.44
2022-11-25T07:06:10.067Z,100983.25
2022-11-25T07:08:39.792Z,100988.56
2022-11-25T07:11:11.259Z,100992.94
2022-11-25T07:13:43.579Z,100995.47
2022-11-25T07:16:14.832Z,100993.69
2022-11-25T07:18:44.656Z,100997.22
2022-11-25T07:21:16.120Z,101003.34
2022-11-25T07:23:47.623Z,101007.72
2022-11-25T07:26:21.800Z,101011.22
2022-11-25T07:28:55.783Z,101021.72
2022-11-25T07:31:31.082Z,101026.09
2022-11-25T07:34:04.033Z,101024.34
2022-11-25T07:36:35.089Z,101027.84
2022-11-25T07:39:08.174Z,101034.00
2022-11-25T07:41:38.098Z,101032.28
2022-11-25T07:44:11.074Z,101033.09
2022-11-25T07:46:43.249Z,101046.22
2022-11-25T07:49:15.118Z,101039.25
2022-11-25T07:51:46.542Z,101059.34
2022-11-25T07:54:16.464Z,101060.19
2022-11-25T07:56:48.645Z,101068.97
2022-11-25T07:59:23.266Z,101052.25
2022-11-25T08:01:54.283Z,101063.59
2022-11-25T08:04:24.572Z,101060.06
2022-11-25T08:06:55.741Z,101065.31
2022-11-25T08:09:26.684Z,101068.00
2022-11-25T08:11:56.462Z,101064.47
2022-11-25T08:14:28.863Z,101068.88
2022-11-25T08:16:58.590Z,101069.81
2022-11-25T08:19:31.448Z,101075.88
2022-11-25T08:22:01.599Z,101080.22
2022-11-25T08:24:31.324Z,101086.38
2022-11-25T08:27:03.374Z,101081.22
2022-11-25T08:29:35.995Z,101086.69
2022-11-25T08:32:11.754Z,101094.75
2022-11-25T08:34:41.936Z,101104.69
2022-11-25T08:37:11.725Z,101100.47
2022-11-25T08:39:52.291Z,101099.84
2022-11-25T08:42:22.636Z,101107.00
2022-11-25T08:44:58.300Z,101102.72
2022-11-25T08:47:28.035Z,101102.84
2022-11-25T08:49:58.573Z,101102.91
2022-11-25T08:52:29.543Z,101100.34
2022-11-25T08:54:59.264Z,101113.63
2022-11-25T08:57:28.992Z,101112.69
2022-11-25T09:00:01.300Z,101111.00
2022-11-25T09:02:31.096Z,101118.03
2022-11-25T09:05:00.973Z,101118.91
2022-11-25T09:07:31.199Z,101119.69
2022-11-25T09:10:03.827Z,101118.78
2022-11-25T09:12:33.614Z,101120.53
2022-11-25T09:15:06.048Z,101130.19
2022-11-25T09:17:37.533Z,101140.78
2022-11-25T09:20:08.714Z,101139.88
2022-11-25T09:22:39.248Z,101151.28
2022-11-25T09:25:10.230Z,101147.88
2022-11-25T09:27:39.962Z,101154.03
2022-11-25T09:30:13.861Z,101150.56
2022-11-25T09:32:44.762Z,101155.88
2022-11-25T09:35:14.508Z,101159.34
2022-11-25T09:37:44.229Z,101154.09
2022-11-25T09:40:20.849Z,101158.50
2022-11-25T09:43:09.804Z,101166.47
2022-11-25T09:46:04.996Z,101170.78
2022-11-25T09:48:51.010Z,101182.25
2022-11-25T09:51:24.477Z,101182.25
2022-11-25T09:53:57.195Z,101184.13
2022-11-25T09:56:36.666Z,101190.34
2022-11-25T09:59:11.138Z,101198.34
2022-11-25T10:01:51.025Z,101202.84
2022-11-25T10:04:25.621Z,101199.41
2022-11-25T10:07:01.270Z,101198.63
2022-11-25T10:09:35.518Z,101197.84
2022-11-25T10:12:09.975Z,101191.75
2022-11-25T10:14:45.710Z,101208.56
2022-11-25T10:17:30.219Z,101198.94
2022-11-25T10:20:04.511Z,101195.47
2022-11-25T10:22:37.595Z,101204.41
2022-11-25T10:25:18.042Z,101208.88
2022-11-25T10:27:52.052Z,101220.34
2022-11-25T10:30:24.376Z,101228.28
2022-11-25T10:33:02.784Z,101227.44
2022-11-25T10:35:37.054Z,101224.91
2022-11-25T10:38:15.801Z,101226.75
2022-11-25T10:40:50.536Z,101230.44
2022-11-25T10:43:20.463Z,101224.41
2022-11-25T10:46:05.161Z,101235.81
2022-11-25T10:48:55.529Z,101238.56
2022-11-25T10:51:38.346Z,101252.66
2022-11-25T10:54:26.854Z,101251.94
2022-11-25T10:56:59.544Z,101255.38
2022-11-25T10:59:32.463Z,101261.59
2022-11-25T11:02:19.890Z,101266.06
2022-11-25T11:04:59.449Z,101263.53
2022-11-25T11:07:31.071Z,101264.34
2022-11-25T11:10:18.337Z,101274.16
2022-11-25T11:12:59.491Z,101274.34
2022-11-25T11:15:31.116Z,101271.84
2022-11-25T11:18:03.048Z,101281.53
2022-11-25T11:20:35.445Z,101278.84
2022-11-25T11:23:09.207Z,101283.22
2022-11-25T11:25:40.739Z,101285.88
2022-11-25T11:28:29.196Z,101292.19
2022-11-25T11:31:03.021Z,101287.94
2022-11-25T11:33:37.231Z,101297.75
2022-11-25T11:36:24.497Z,101298.88
2022-11-25T11:38:57.770Z,101294.59
2022-11-25T11:41:39.479Z,101298.31
2022-11-25T11:44:22.110Z,101304.63
2022-11-25T11:47:06.807Z,101308.38
2022-11-25T11:49:59.740Z,101304.19
2022-11-25T11:52:43.737Z,101314.00
2022-11-25T11:55:26.373Z,101313.31
2022-11-25T11:58:04.127Z,101319.50
2022-11-25T12:00:37.213Z,101322.28
2022-11-25T12:03:16.039Z,101324.19
2022-11-25T12:05:45.826Z,101330.41
2022-11-25T12:08:26.311Z,101340.22
2022-11-25T12:10:59.363Z,101333.25
2022-11-25T12:13:38.982Z,101338.59
2022-11-25T12:16:16.284Z,101341.31
2022-11-25T12:18:53.601Z,101348.34
2022-11-25T12:21:41.850Z,101357.22
2022-11-25T12:24:24.660Z,101357.28
2022-11-25T12:27:00.732Z,101352.03
2022-11-25T12:29:38.320Z,101356.50
2022-11-25T12:32:25.811Z,101360.03
2022-11-25T12:35:00.813Z,101369.59
2022-11-25T12:37:35.373Z,101369.59
2022-11-25T12:40:15.271Z,101364.34
2022-11-25T12:42:47.011Z,101370.56
2022-11-25T12:45:23.602Z,101371.69
2022-11-25T12:47:54.339Z,101368.34
2022-11-25T12:50:33.111Z,101379.19
2022-11-25T12:53:09.220Z,101383.75
2022-11-25T12:55:43.575Z,101377.69
2022-11-25T12:58:33.407Z,101386.59
2022-11-25T13:01:27.666Z,101384.03
2022-11-25T13:04:35.614Z,101390.28
2022-11-25T13:07:38.188Z,101392.13
2022-11-25T13:10:35.136Z,101400.84
2022-11-25T13:13:27.879Z,101401.63
2022-11-25T13:15:59.397Z,101408.63
2022-11-25T13:18:33.750Z,101414.78
2022-11-25T13:21:10.015Z,101418.28
2022-11-25T13:23:52.347Z,101417.44
2022-11-25T13:26:41.728Z,101426.19
2022-11-25T13:30:02.837Z,101427.00
2022-11-25T13:32:43.433Z,101417.38
2022-11-25T13:35:34.581Z,101425.34
2022-11-25T13:38:04.400Z,101431.50
2022-11-25T13:40:41.371Z,101429.78
2022-11-25T13:43:25.119Z,101428.06
2022-11-25T13:45:55.242Z,101442.09
2022-11-25T13:48:30.674Z,101447.38
2022-11-25T13:51:17.419Z,101441.25
2022-11-25T13:53:54.534Z,101445.63
2022-11-25T13:56:31.321Z,101450.97
2022-11-25T13:59:22.754Z,101451.88
2022-11-25T14:01:57.239Z,101462.41
2022-11-25T14:04:46.616Z,101465.94
2022-11-25T14:07:30.888Z,101478.13
2022-11-25T14:10:21.468Z,101472.88
2022-11-25T14:13:08.118Z,101482.47
2022-11-25T14:15:52.613Z,101484.94
2022-11-25T14:21:55.857Z,101492.53
2022-11-25T14:24:32.945Z,101494.22
2022-11-25T14:27:03.744Z,101504.63
2022-11-25T14:29:41.404Z,101508.03
2022-11-25T14:32:15.989Z,101520.22
2022-11-25T14:34:49.326Z,101516.66
2022-11-25T14:37:26.724Z,101520.88
2022-11-25T14:40:03.585Z,101526.94
2022-11-25T14:42:38.200Z,101536.38
2022-11-25T14:45:23.858Z,101542.41
2022-11-25T14:47:53.727Z,101553.66
2022-11-25T14:50:39.066Z,101553.44
2022-11-25T14:53:14.876Z,101559.41
2022-11-25T14:55:44.732Z,101558.44
2022-11-25T14:58:15.848Z,101564.41
2022-11-25T15:00:54.272Z,101574.78
2022-11-25T15:03:23.996Z,101561.38
2022-11-25T15:05:59.623Z,101567.41
2022-11-25T15:08:40.776Z,101581.31
2022-11-25T15:11:16.388Z,101577.72
2022-11-25T15:13:47.876Z,101589.09
2022-11-25T15:16:20.105Z,101594.19
2022-11-25T15:18:53.168Z,101597.59
2022-11-25T15:21:26.168Z,101598.34
2022-11-25T15:23:58.787Z,101593.81
2022-11-25T15:26:30.541Z,101603.34
2022-11-25T15:29:02.910Z,101606.75
2022-11-25T15:31:35.230Z,101605.84
2022-11-25T15:34:07.114Z,101615.47
2022-11-25T15:36:37.024Z,101620.66
2022-11-25T15:39:27.966Z,101623.28
2022-11-25T15:41:59.399Z,101622.25
2022-11-25T15:44:32.232Z,101637.06
2022-11-25T15:47:05.614Z,101640.44
2022-11-25T15:49:37.006Z,101645.50
2022-11-25T15:52:10.348Z,101643.63
2022-11-25T15:54:47.174Z,101649.69
2022-11-25T15:57:20.724Z,101659.25
2022-11-25T15:59:53.628Z,101658.28
2022-11-25T16:02:40.085Z,101657.28
2022-11-25T16:05:29.100Z,101675.63
2022-11-25T16:08:27.268Z,101672.78
2022-11-25T16:11:02.324Z,101684.97
2022-11-25T16:13:37.627Z,101689.97
2022-11-25T16:16:20.514Z,101692.44
2022-11-25T16:19:07.903Z,101699.22
2022-11-25T16:21:48.743Z,101708.75
2022-11-25T16:24:33.493Z,101709.41
2022-11-25T16:27:08.123Z,101718.94
2022-11-25T16:29:41.213Z,101718.88
2022-11-25T16:32:17.155Z,101724.03
2022-11-25T16:34:47.411Z,101727.41
2022-11-25T16:37:17.415Z,101723.81
2022-11-25T16:39:47.124Z,101729.81
2022-11-25T16:42:24.684Z,101742.00
2022-11-25T16:44:55.385Z,101743.56
2022-11-25T16:47:26.354Z,101752.19
2022-11-25T16:49:56.540Z,101760.00
2022-11-25T16:52:26.321Z,101764.34
2022-11-25T16:54:55.999Z,101772.16
2022-11-25T16:57:28.379Z,101773.78
2022-11-25T17:00:01.040Z,101784.31
2022-11-25T17:02:30.996Z,101785.16
2022-11-25T17:05:09.634Z,101799.09
2022-11-25T17:07:39.419Z,101796.47
2022-11-25T17:10:10.716Z,101802.56
2022-11-25T17:12:45.537Z,101802.34
2022-11-25T17:15:18.793Z,101808.28
2022-11-25T17:17:50.219Z,101809.03
2022-11-25T17:20:23.961Z,101814.19
2022-11-25T17:22:54.247Z,101825.53
2022-11-25T17:25:25.747Z,101823.72
2022-11-25T17:27:58.892Z,101825.28
2022-11-25T17:30:30.195Z,101835.66
2022-11-25T17:33:04.732Z,101836.38
2022-11-25T17:35:34.459Z,101833.59
2022-11-25T17:38:04.201Z,101842.28
2022-11-25T17:40:34.572Z,101837.78
2022-11-25T17:43:07.115Z,101844.84
2022-11-25T17:45:36.909Z,101856.97
2022-11-25T17:48:11.646Z,101863.88
2022-11-25T17:50:42.707Z,101860.25
2022-11-25T17:53:12.607Z,101875.09
2022-11-25T17:55:43.722Z,101875.84
2022-11-25T17:58:19.332Z,101882.88
2022-11-25T18:00:49.371Z,101885.63
2022-11-25T18:03:19.760Z,101884.78
2022-11-25T18:05:49.505Z,101892.75
2022-11-25T18:08:19.270Z,101898.00
2022-11-25T18:10:49.591Z,101906.78
2022-11-25T18:13:21.919Z,101910.25
2022-11-25T18:15:51.752Z,101910.88
2022-11-25T18:18:24.357Z,101913.34
2022-11-25T18:20:54.387Z,101925.47
2022-11-25T18:23:24.233Z,101927.94
2022-11-25T18:25:55.323Z,101940.06
2022-11-25T18:28:29.569Z,101947.84
2022-11-25T18:31:03.064Z,101952.94
2022-11-25T18:33:33.529Z,101950.16
2022-11-25T18:36:03.339Z,101956.03
2022-11-25T18:38:33.218Z,101963.72
2022-11-25T18:41:04.455Z,101957.41
2022-11-25T18:43:37.709Z,101963.47
2022-11-25T18:46:07.942Z,101973.78
2022-11-25T18:48:37.744Z,101977.13
2022-11-25T18:51:08.853Z,101973.44
2022-11-25T18:53:38.564Z,101986.38
2022-11-25T18:56:08.565Z,101972.19
2022-11-25T18:58:41.042Z,101983.28
2022-11-25T19:01:15.964Z,101984.03
2022-11-25T19:03:45.726Z,101982.94
2022-11-25T19:06:17.149Z,101988.03
2022-11-25T19:08:46.876Z,101987.84
2022-11-25T19:11:20.348Z,101990.38
2022-11-25T19:13:53.752Z,102002.66
2022-11-25T19:16:25.483Z,101999.88
2022-11-25T19:18:55.718Z,102011.19
2022-11-25T19:21:25.470Z,102011.19
2022-11-25T19:23:55.239Z,102019.06
2022-11-25T19:26:30.776Z,102019.84
2022-11-25T19:29:08.035Z,102031.16
2022-11-25T19:31:38.503Z,102033.88
2022-11-25T19:34:08.627Z,102033.88
2022-11-25T19:36:38.368Z,102036.41
2022-11-25T19:39:18.316Z,102042.66
2022-11-25T19:41:49.535Z,102046.09
2022-11-25T19:44:21.944Z,102053.16
2022-11-25T19:47:14.166Z,102060.03
2022-11-25T19:49:42.948Z,102059.03
2022-11-25T19:52:17.877Z,102051.25
2022-11-25T19:54:47.591Z,102053.78
2022-11-25T19:57:19.778Z,102050.25
2022-11-25T19:59:52.486Z,102053.59
2022-11-25T20:02:26.614Z,102066.59
2022-11-25T20:04:59.395Z,102069.88
2022-11-25T20:07:31.224Z,102075.00
2022-11-25T20:10:09.803Z,102074.91
2022-11-25T20:12:39.476Z,102078.25
2022-11-25T20:15:14.282Z,102083.50
2022-11-25T20:17:47.286Z,102097.59
2022-11-25T20:20:20.262Z,102102.84
2022-11-25T20:22:57.628Z,102095.63
2022-11-25T20:25:27.495Z,102100.66
2022-11-25T20:27:57.449Z,102110.06
2022-11-25T20:30:31.801Z,102109.88
2022-11-25T20:33:01.501Z,102108.75
2022-11-25T20:35:33.039Z,102108.88
2022-11-25T20:38:03.180Z,102120.25
2022-11-25T20:40:39.935Z,102122.16
2022-11-25T20:43:14.555Z,102114.41
2022-11-25T20:45:46.922Z,102114.41
2022-11-25T20:48:16.736Z,102116.22
2022-11-25T20:50:46.562Z,102119.66
2022-11-25T20:53:17.448Z,102125.69
2022-11-25T20:55:48.248Z,102115.91
2022-11-25T20:58:24.076Z,102126.41
2022-11-25T21:00:58.079Z,102132.34
2022-11-25T21:03:28.360Z,102135.81
2022-11-25T21:05:58.412Z,102141.75
2022-11-25T21:08:31.664Z,102145.16
2022-11-25T21:11:01.905Z,102145.78
2022-11-25T21:13:33.287Z,102151.81
2022-11-25T21:16:05.585Z,102156.06
2022-11-25T21:18:35.325Z,102167.28
2022-11-25T21:21:05.353Z,102176.81
2022-11-25T21:23:38.470Z,102183.72
2022-11-25T21:26:10.870Z,102180.06
2022-11-25T21:28:44.356Z,102187.81
2022-11-25T21:31:19.555Z,102192.88
2022-11-25T21:33:49.932Z,102192.69
2022-11-25T21:36:21.808Z,102196.00
2022-11-25T21:38:54.194Z,102195.00
2022-11-25T21:41:23.967Z,102198.41
2022-11-25T21:43:54.265Z,102209.72
2022-11-25T21:46:29.042Z,102209.59
2022-11-25T21:48:58.843Z,102205.06
2022-11-25T21:51:28.547Z,102213.75
2022-11-25T21:53:58.243Z,102208.50
2022-11-25T21:56:29.696Z,102213.75
2022-11-25T21:59:01.270Z,102218.88
2022-11-25T22:01:33.609Z,102222.31
2022-11-25T22:04:03.464Z,102216.88
2022-11-25T22:06:33.780Z,102228.97
2022-11-25T22:09:05.908Z,102229.56
2022-11-25T22:11:38.472Z,102233.88
2022-11-25T22:14:13.433Z,102234.59
2022-11-25T22:16:45.839Z,102237.13
2022-11-25T22:19:22.706Z,102241.44
2022-11-25T22:21:52.429Z,102241.25
2022-11-25T22:24:23.444Z,102244.69
2022-11-25T22:26:58.015Z,102248.91
2022-11-25T22:29:35.532Z,102253.13
2022-11-25T22:32:12.556Z,102252.09
2022-11-25T22:34:42.700Z,102258.16
2022-11-25T22:37:18.980Z,102269.53
2022-11-25T22:39:49.288Z,102263.41
2022-11-25T22:42:28.589Z,102261.56
2022-11-25T22:45:00.147Z,102264.09
2022-11-25T22:47:39.007Z,102266.81
2022-11-25T22:50:17.065Z,102263.06
2022-11-25T22:52:46.817Z,102267.31
2022-11-25T22:55:21.323Z,102265.38
2022-11-25T22:57:52.694Z,102261.75
2022-11-25T23:00:25.437Z,102266.00
2022-11-25T23:02:59.748Z,102271.22
2022-11-25T23:05:33.495Z,102279.09
2022-11-25T23:08:04.671Z,102280.78
2022-11-25T23:10:35.115Z,102284.22
2022-11-25T23:13:04.795Z,102281.72
2022-11-25T23:15:35.211Z,102286.13
2022-11-25T23:18:10.347Z,102292.19
2022-11-25T23:20:42.319Z,102286.94
2022-11-25T23:23:17.086Z,102285.31
2022-11-25T23:25:47.375Z,102294.19
2022-11-25T23:28:17.511Z,102295.00
2022-11-25T23:30:51.400Z,102295.78
2022-11-25T23:33:31.375Z,102294.81
2022-11-25T23:36:06.217Z,102300.94
2022-11-25T23:38:44.471Z,102303.56
2022-11-25T23:41:19.227Z,102302.66
2022-11-25T23:43:48.984Z,102306.75
2022-11-25T23:46:19.969Z,102309.16
2022-11-25T23:48:57.917Z,102312.69
2022-11-25T23:51:29.198Z,102318.81
2022-11-25T23:53:59.891Z,102320.53
2022-11-25T23:56:30.580Z,102324.06
2022-11-25T23:59:01.256Z,102327.50
